Portada
METAR-TAF:

METAR-TAF

Aeroports :

Båtsfjord, Noruega

latitud: 70-38N, longitud: 029-44E, altitud: 10 m

Observació

L'informe es va fer fa 9 hores i 16 minuts, a les 20:50 UTC
Vent 8 kt del Oest/Nord-Oest
Temperatura 11°C
Humitat 82%
Pressió 1022 hPa
Visibilitat 10 km o més
Cel ennuvolat a una alçada de 2600 ft

METAR: ENBS 072050Z 29008KT 9999 BKN026 11/08 Q1022

Hora: 08:06 (06:06 UTC)


TAF: manca

Observacions i pronòstics meteorològics de més de 4000 aeroports (METAR i TAF).

Les estacions disponibles són els punts grocs i vermells al mapa.

Posi el ratolí al punt desitjat per veure el nom de l'estació.

Feu clic per veure les observacions i els pronòstics meteorològics.

Per canviar el mapa: feu clic els botons verds amb una creu de color negre per apropar; al botó verd amb un guió per allunyar la imatge; o en les fletxes verdes per a mapes adjacents.


METAR-TAF: